Terminal Aerodrome Forecast
Issued by NWS

Home | Current Version | Previous Version | Text Only | Print | Product List | Glossary On
Versions: 1 2 3 4 5 6 7 8 9 10 11 12
000
FTAK31 PAJN 252320
TAFAPG
TAF
PAPG 252320Z 2600/2624 VRB06KT P6SM VCSH SCT020 OVC035
      TEMPO 2600/2604 VRB04KT -SHRA FEW010 BKN025 OVC035
     FM260800 00000KT P6SM FEW015 BKN040
     FM261900 06005KT P6SM BKN050
      AMD LTD TO CLD VIS AND WIND 2606/2615=

USA.gov is the U.S. government's official web portal to all federal, state and local government web resources and services.